Inicio METAR Ruta Wind Satelite

Informe Meteorológico

Fecha: 2020/09/22 22:29:57 Local
2020.09.23 03:29 UTC


Estado: VENCIDO
Operación:VFR
Station name not available
2020.09.22 1900 UTC
Wind: from the WNW (290 degrees) at 9 MPH (8 KT):0
Visibility: greater than 7 mile(s):0
Sky conditions: mostly cloudy
Temperature: 71 F (22 C)
Dew Point: 57 F (14 C)
Relative Humidity: 60%
Pressure (altimeter): 30.24 in. Hg (1024 hPa)
ob: SKMZ 221900Z 29008KT 9999 SCT020 BKN080 22/14 A3024 RMK HZ/W
cycle: 19

SKMZ 221800Z 30009KT 9999 SCT015 BKN080 21/16 A3025 RMK HZ/W
SKMZ 221700Z 29008KT 9000 VCFG SCT015 SCT100 21/16 A3028 RMK VCFG/W
SKMZ 221600Z 30010KT 8000 VCFG SCT015 SCT100 20/16 A3032
SKMZ 221500Z 30009KT 8000 VCFG SCT012 SCT100 19/16 A3033
SKMZ 221400Z 00000KT 8000 VCFG SCT012 SCT100 18/14 A3034